createdAt,value
2023-01-19T00:00:50.694Z,992.32
2023-01-19T00:01:50.632Z,992.32
2023-01-19T00:02:50.790Z,992.28
2023-01-19T00:03:50.612Z,992.32
2023-01-19T00:04:50.603Z,992.21
2023-01-19T00:05:50.667Z,992.24
2023-01-19T00:06:50.571Z,992.26
2023-01-19T00:07:50.591Z,992.26
2023-01-19T00:08:50.558Z,992.30
2023-01-19T00:09:50.580Z,992.31
2023-01-19T00:10:50.554Z,992.32
2023-01-19T00:11:50.507Z,992.35
2023-01-19T00:12:50.511Z,992.39
2023-01-19T00:13:50.494Z,992.44
2023-01-19T00:14:50.465Z,992.49
2023-01-19T00:15:50.516Z,992.48
2023-01-19T00:16:50.460Z,992.46
2023-01-19T00:17:50.442Z,992.48
2023-01-19T00:18:50.425Z,992.51
2023-01-19T00:19:50.416Z,992.45
2023-01-19T00:20:50.386Z,992.47
2023-01-19T00:21:50.378Z,992.54
2023-01-19T00:22:50.369Z,992.56
2023-01-19T00:23:50.350Z,992.52
2023-01-19T00:24:50.357Z,992.54
2023-01-19T00:25:50.320Z,992.64
2023-01-19T00:26:50.324Z,992.67
2023-01-19T00:27:50.284Z,992.57
2023-01-19T00:28:50.303Z,992.58
2023-01-19T00:29:50.290Z,992.62
2023-01-19T00:30:50.305Z,992.62
2023-01-19T00:31:50.316Z,992.62
2023-01-19T00:32:50.260Z,992.66
2023-01-19T00:33:50.208Z,992.65
2023-01-19T00:34:50.197Z,992.68
2023-01-19T00:35:50.228Z,992.65
2023-01-19T00:36:50.171Z,992.62
2023-01-19T00:37:50.175Z,992.69
2023-01-19T00:38:50.158Z,992.68
2023-01-19T00:39:50.131Z,992.69
2023-01-19T00:40:50.122Z,992.77
2023-01-19T00:41:50.132Z,992.65
2023-01-19T00:42:50.100Z,992.65
2023-01-19T00:43:50.092Z,992.60
2023-01-19T00:44:50.095Z,992.65
2023-01-19T00:45:50.161Z,992.71
2023-01-19T00:46:50.040Z,992.68
2023-01-19T00:47:50.044Z,992.63
2023-01-19T00:48:50.007Z,992.64
2023-01-19T00:49:50.003Z,992.70
2023-01-19T00:50:50.044Z,992.72
2023-01-19T00:51:49.967Z,992.74
2023-01-19T00:52:49.973Z,992.69
2023-01-19T00:53:49.954Z,992.74
2023-01-19T00:54:49.943Z,992.70
2023-01-19T00:55:49.911Z,992.72
2023-01-19T00:56:49.929Z,992.74
2023-01-19T00:57:49.870Z,992.75
2023-01-19T00:58:49.879Z,992.64
2023-01-19T00:59:49.874Z,992.75
2023-01-19T01:00:50.014Z,992.72
2023-01-19T01:01:49.945Z,992.68
2023-01-19T01:02:49.837Z,992.73
2023-01-19T01:03:49.815Z,992.77
2023-01-19T01:04:49.795Z,992.76
2023-01-19T01:05:49.810Z,992.78
2023-01-19T01:06:49.876Z,992.78
2023-01-19T01:07:49.766Z,992.75
2023-01-19T01:08:48.730Z,992.75
2023-01-19T01:09:49.751Z,992.69
2023-01-19T01:10:49.733Z,992.71
2023-01-19T01:11:49.725Z,992.72
2023-01-19T01:12:57.765Z,992.77
2023-01-19T01:13:49.679Z,992.77
2023-01-19T01:14:49.682Z,992.69
2023-01-19T01:28:48.981Z,992.82
2023-01-19T01:29:49.952Z,992.85
2023-01-19T01:34:40.696Z,992.73
2023-01-19T01:35:40.099Z,992.77
2023-01-19T01:36:40.038Z,992.74
2023-01-19T01:37:39.922Z,992.75
2023-01-19T01:38:39.913Z,992.76
2023-01-19T01:39:39.919Z,992.77
2023-01-19T01:40:39.903Z,992.73
2023-01-19T01:41:39.873Z,992.73
2023-01-19T01:42:39.880Z,992.73
2023-01-19T01:43:39.846Z,992.77
2023-01-19T01:44:39.849Z,992.75
2023-01-19T02:10:01.329Z,992.78
2023-01-19T02:11:00.434Z,992.77
2023-01-19T02:12:00.404Z,992.73
2023-01-19T02:13:00.918Z,992.78
2023-01-19T02:14:00.372Z,992.74
2023-01-19T02:15:00.354Z,992.74
2023-01-19T02:16:00.346Z,992.74
2023-01-19T02:17:00.408Z,992.71
2023-01-19T02:18:00.356Z,992.73
2023-01-19T02:19:00.352Z,992.78
2023-01-19T02:20:00.312Z,992.78
2023-01-19T02:21:00.326Z,992.76
2023-01-19T02:22:00.264Z,992.73
2023-01-19T02:23:00.687Z,992.74
2023-01-19T02:24:00.228Z,992.70
2023-01-19T02:25:00.251Z,992.72
2023-01-19T02:26:00.226Z,992.73
2023-01-19T02:27:00.196Z,992.71
2023-01-19T02:28:00.202Z,992.68
2023-01-19T02:29:00.167Z,992.69
2023-01-19T02:30:00.183Z,992.69
2023-01-19T02:31:00.200Z,992.65
2023-01-19T02:32:00.144Z,992.70
2023-01-19T02:33:00.493Z,992.65
2023-01-19T02:34:00.130Z,992.61
2023-01-19T02:35:00.120Z,992.68
2023-01-19T02:36:00.103Z,992.68
2023-01-19T02:37:00.059Z,992.66
2023-01-19T02:38:00.093Z,992.66
2023-01-19T02:39:00.089Z,992.52
2023-01-19T02:40:00.029Z,992.58
2023-01-19T02:41:00.028Z,992.62
2023-01-19T02:42:00.011Z,992.61
2023-01-19T02:43:00.330Z,992.57
2023-01-19T02:43:59.988Z,992.56
2023-01-19T02:45:00.026Z,992.54
2023-01-19T02:45:59.996Z,992.66
2023-01-19T02:46:59.945Z,992.66
2023-01-19T02:47:59.942Z,992.63
2023-01-19T02:48:59.933Z,992.67
2023-01-19T02:49:59.886Z,992.57
2023-01-19T02:50:59.892Z,992.63
2023-01-19T02:51:59.905Z,992.61
2023-01-19T02:53:00.174Z,992.64
2023-01-19T02:53:59.846Z,992.59
2023-01-19T02:54:59.871Z,992.58
2023-01-19T02:55:59.778Z,992.58
2023-01-19T02:56:59.809Z,992.60
2023-01-19T02:57:59.776Z,992.66
2023-01-19T02:58:59.822Z,992.56
2023-01-19T02:59:59.743Z,992.57
2023-01-19T03:00:59.861Z,992.52
2023-01-19T03:01:59.806Z,992.50
2023-01-19T03:03:00.127Z,992.53
2023-01-19T03:03:59.828Z,992.57
2023-01-19T03:04:59.687Z,992.56
2023-01-19T03:05:59.714Z,992.52
2023-01-19T03:06:59.662Z,992.51
2023-01-19T03:07:59.658Z,992.49
2023-01-19T03:08:59.672Z,992.52
2023-01-19T03:09:59.644Z,992.53
2023-01-19T03:10:59.655Z,992.44
2023-01-19T03:11:59.623Z,992.44
2023-01-19T03:12:59.942Z,992.49
2023-01-19T03:14:01.741Z,992.46
2023-01-19T03:14:59.586Z,992.46
2023-01-19T03:15:59.625Z,992.49
2023-01-19T03:16:59.529Z,992.41
2023-01-19T03:17:59.519Z,992.45
2023-01-19T03:18:59.571Z,992.43
2023-01-19T03:19:59.524Z,992.41
2023-01-19T03:20:59.483Z,992.40
2023-01-19T03:21:59.484Z,992.44
2023-01-19T03:22:59.738Z,992.40
2023-01-19T03:23:59.440Z,992.42
2023-01-19T03:24:59.474Z,992.45
2023-01-19T03:25:59.407Z,992.41
2023-01-19T03:26:59.413Z,992.38
2023-01-19T04:25:06.802Z,992.41
2023-01-19T04:26:06.596Z,992.38
2023-01-19T04:27:06.599Z,992.39
2023-01-19T04:28:06.580Z,992.36
2023-01-19T04:29:20.971Z,992.36
2023-01-19T04:30:06.572Z,992.37
2023-01-19T04:31:06.842Z,992.30
2023-01-19T04:32:27.775Z,992.39
2023-01-19T04:33:06.547Z,992.32
2023-01-19T04:34:22.055Z,992.38
2023-01-19T04:35:06.509Z,992.31
2023-01-19T04:42:24.716Z,992.32
2023-01-19T04:43:25.507Z,992.37
2023-01-19T04:44:25.505Z,992.37
2023-01-19T04:45:25.496Z,992.31
2023-01-19T04:46:25.545Z,992.30
2023-01-19T04:47:25.449Z,992.27
2023-01-19T04:48:25.461Z,992.32
2023-01-19T04:49:25.555Z,992.30
2023-01-19T04:50:25.457Z,992.34
2023-01-19T04:51:25.402Z,992.40
2023-01-19T04:52:25.374Z,992.33
2023-01-19T04:53:25.366Z,992.36
2023-01-19T04:54:25.390Z,992.29
2023-01-19T04:55:25.334Z,992.34
2023-01-19T04:56:25.339Z,992.33
2023-01-19T04:57:25.310Z,992.32
2023-01-19T04:58:25.332Z,992.28
2023-01-19T04:59:25.324Z,992.28
2023-01-19T05:00:25.285Z,992.28
2023-01-19T05:01:25.342Z,992.30
2023-01-19T05:02:25.242Z,992.32
2023-01-19T05:03:26.559Z,992.36
2023-01-19T05:04:25.207Z,992.33
2023-01-19T05:05:25.233Z,992.30
2023-01-19T05:06:25.219Z,992.40
2023-01-19T05:07:25.180Z,992.41
2023-01-19T05:08:25.221Z,992.40
2023-01-19T05:09:25.153Z,992.41
2023-01-19T05:10:25.136Z,992.41
2023-01-19T05:11:25.138Z,992.42
2023-01-19T05:12:25.101Z,992.36
2023-01-19T05:13:25.126Z,992.39
2023-01-19T05:14:25.103Z,992.42
2023-01-19T05:15:25.119Z,992.44
2023-01-19T05:16:25.160Z,992.45
2023-01-19T05:17:25.071Z,992.46
2023-01-19T05:18:25.073Z,992.44
2023-01-19T05:19:25.040Z,992.45
2023-01-19T05:20:25.063Z,992.44
2023-01-19T05:21:24.998Z,992.50
2023-01-19T05:22:24.980Z,992.51
2023-01-19T05:23:24.994Z,992.55
2023-01-19T05:24:24.958Z,992.55
2023-01-19T05:25:24.998Z,992.49
2023-01-19T05:26:24.983Z,992.59
2023-01-19T05:27:24.948Z,992.52
2023-01-19T05:28:24.891Z,992.52
2023-01-19T05:29:24.901Z,992.52
2023-01-19T05:30:24.905Z,992.53
2023-01-19T05:31:24.981Z,992.54
2023-01-19T05:32:24.841Z,992.55
2023-01-19T05:33:24.827Z,992.55
2023-01-19T05:34:24.816Z,992.51
2023-01-19T05:35:35.272Z,992.54
2023-01-19T05:36:24.846Z,992.57
2023-01-19T05:37:24.809Z,992.53
2023-01-19T05:38:34.592Z,992.55
2023-01-19T05:39:24.755Z,992.57
2023-01-19T05:40:24.758Z,992.59
2023-01-19T05:41:24.741Z,992.53
2023-01-19T05:42:24.727Z,992.58
2023-01-19T05:43:24.700Z,992.56
2023-01-19T05:44:24.788Z,992.60
2023-01-19T05:45:24.696Z,992.61
2023-01-19T05:46:24.772Z,992.66
2023-01-19T05:47:24.665Z,992.60
2023-01-19T05:48:24.645Z,992.63
2023-01-19T05:49:24.628Z,992.64
2023-01-19T05:50:24.649Z,992.65
2023-01-19T05:51:24.639Z,992.64
2023-01-19T05:52:24.629Z,992.61
2023-01-19T05:53:24.567Z,992.60
2023-01-19T05:54:24.573Z,992.62
2023-01-19T05:55:24.577Z,992.63
2023-01-19T05:56:24.683Z,992.67
2023-01-19T05:57:24.525Z,992.61
2023-01-19T05:58:24.496Z,992.61
2023-01-19T05:59:24.513Z,992.63
2023-01-19T06:00:24.478Z,992.63
2023-01-19T06:01:24.558Z,992.57
2023-01-19T06:02:24.517Z,992.66
2023-01-19T06:03:24.456Z,992.64
2023-01-19T06:04:24.423Z,992.58
2023-01-19T06:05:24.443Z,992.68
2023-01-19T06:06:24.393Z,992.69
2023-01-19T06:07:25.303Z,992.71
2023-01-19T06:08:24.453Z,992.73
2023-01-19T06:09:24.409Z,992.67
2023-01-19T06:10:24.359Z,992.72
2023-01-19T06:11:24.417Z,992.69
2023-01-19T06:12:24.395Z,992.70
2023-01-19T06:13:24.323Z,992.69
2023-01-19T06:14:24.291Z,992.74
2023-01-19T06:15:24.366Z,992.74
2023-01-19T06:16:24.351Z,992.76
2023-01-19T06:17:24.242Z,992.79
2023-01-19T06:18:24.240Z,992.83
2023-01-19T06:19:24.301Z,992.83
2023-01-19T06:20:24.239Z,992.80
2023-01-19T06:21:24.215Z,992.81
2023-01-19T06:22:24.219Z,992.83
2023-01-19T06:23:24.229Z,992.82
2023-01-19T06:24:24.174Z,992.84
2023-01-19T06:25:24.176Z,992.93
2023-01-19T06:26:24.180Z,992.91
2023-01-19T06:27:24.133Z,992.96
2023-01-19T06:28:24.111Z,992.93
2023-01-19T06:29:24.173Z,992.93
2023-01-19T06:30:24.108Z,992.93
2023-01-19T06:31:24.104Z,992.90
2023-01-19T06:32:24.160Z,992.94
2023-01-19T06:33:24.073Z,992.90
2023-01-19T06:34:24.049Z,992.94
2023-01-19T06:35:24.060Z,992.99
2023-01-19T06:36:24.032Z,992.95
2023-01-19T06:37:24.002Z,992.97
2023-01-19T06:38:23.998Z,992.97
2023-01-19T06:39:24.023Z,993.03
2023-01-19T06:40:23.979Z,992.95
2023-01-19T06:41:23.933Z,993.00
2023-01-19T06:42:23.941Z,992.97
2023-01-19T06:43:23.942Z,993.03
2023-01-19T06:44:23.931Z,993.06
2023-01-19T06:45:24.018Z,993.07
2023-01-19T06:46:23.884Z,993.08
2023-01-19T06:47:23.939Z,993.01
2023-01-19T06:48:23.881Z,993.06
2023-01-19T06:49:23.828Z,993.12
2023-01-19T06:50:23.840Z,993.09
2023-01-19T06:51:23.799Z,993.10
2023-01-19T06:52:23.833Z,993.13
2023-01-19T06:53:23.830Z,993.12
2023-01-19T06:54:23.773Z,993.17
2023-01-19T06:55:23.762Z,993.12
2023-01-19T06:56:23.757Z,993.28
2023-01-19T06:57:23.735Z,993.24
2023-01-19T06:58:23.742Z,993.26
2023-01-19T06:59:23.687Z,993.26
2023-01-19T07:00:23.790Z,993.28
2023-01-19T07:01:23.703Z,993.26
2023-01-19T07:02:26.294Z,993.29
2023-01-19T07:03:24.216Z,993.29
2023-01-19T07:04:23.635Z,993.32
2023-01-19T07:05:23.640Z,993.29
2023-01-19T07:06:23.610Z,993.21
2023-01-19T07:07:23.604Z,993.27
2023-01-19T07:08:23.608Z,993.31
2023-01-19T07:09:23.583Z,993.37
2023-01-19T07:10:23.657Z,993.32
2023-01-19T07:11:31.963Z,993.36
2023-01-19T07:12:23.551Z,993.40
2023-01-19T07:13:23.528Z,993.45
2023-01-19T07:14:23.502Z,993.49
2023-01-19T07:15:23.492Z,993.44
2023-01-19T07:16:23.618Z,993.45
2023-01-19T07:17:23.493Z,993.43
2023-01-19T07:18:23.492Z,993.45
2023-01-19T07:19:23.478Z,993.40
2023-01-19T07:20:23.522Z,993.48
2023-01-19T07:21:23.423Z,993.46
2023-01-19T07:22:23.400Z,993.48
2023-01-19T07:23:23.380Z,993.52
2023-01-19T07:24:23.394Z,993.46
2023-01-19T07:25:23.377Z,993.47
2023-01-19T07:26:23.362Z,993.57
2023-01-19T07:27:23.334Z,993.60
2023-01-19T07:28:23.357Z,993.64
2023-01-19T07:29:23.372Z,993.67
2023-01-19T07:30:23.392Z,993.73
2023-01-19T07:31:23.422Z,993.63
2023-01-19T07:32:23.321Z,993.60
2023-01-19T07:33:23.257Z,993.69
2023-01-19T07:34:23.270Z,993.72
2023-01-19T07:35:23.288Z,993.77
2023-01-19T07:36:23.304Z,993.81
2023-01-19T07:37:23.247Z,993.82
2023-01-19T07:38:23.202Z,993.86
2023-01-19T07:39:23.187Z,993.80
2023-01-19T07:40:24.122Z,993.81
2023-01-19T07:41:23.200Z,993.90
2023-01-19T07:42:23.142Z,993.91
2023-01-19T07:43:23.133Z,993.96
2023-01-19T07:44:23.111Z,993.95
2023-01-19T07:45:23.129Z,993.98
2023-01-19T07:46:24.480Z,993.98
2023-01-19T07:47:23.117Z,993.98
2023-01-19T07:48:23.215Z,993.94
2023-01-19T07:49:23.053Z,993.94
2023-01-19T07:50:23.046Z,993.96
2023-01-19T07:51:23.050Z,993.98
2023-01-19T07:52:23.064Z,993.99
2023-01-19T07:53:23.003Z,993.96
2023-01-19T07:54:23.014Z,993.98
2023-01-19T07:55:22.974Z,994.02
2023-01-19T07:56:22.989Z,994.11
2023-01-19T07:57:22.942Z,994.11
2023-01-19T07:58:22.936Z,994.17
2023-01-19T07:59:22.961Z,994.16
2023-01-19T08:00:22.911Z,994.17
2023-01-19T08:01:22.993Z,994.15
2023-01-19T08:02:22.940Z,994.12
2023-01-19T08:03:22.907Z,994.12
2023-01-19T08:04:22.884Z,994.24
2023-01-19T08:05:22.853Z,994.24
2023-01-19T08:06:22.859Z,994.34
2023-01-19T08:07:22.876Z,994.32
2023-01-19T08:08:22.805Z,994.31
2023-01-19T08:09:22.809Z,994.36
2023-01-19T08:10:22.827Z,994.43
2023-01-19T08:11:22.820Z,994.46
2023-01-19T08:12:22.750Z,994.46
2023-01-19T08:13:22.798Z,994.43
2023-01-19T08:14:22.810Z,994.51
2023-01-19T08:15:22.914Z,994.53
2023-01-19T08:16:22.732Z,994.58
2023-01-19T08:17:22.714Z,994.60
2023-01-19T08:18:22.706Z,994.63
2023-01-19T08:19:22.741Z,994.58
2023-01-19T08:20:22.675Z,994.51
2023-01-19T08:21:22.690Z,994.55
2023-01-19T08:22:22.650Z,994.55
2023-01-19T08:23:22.609Z,994.60
2023-01-19T08:24:22.690Z,994.60
2023-01-19T08:25:22.610Z,994.64
2023-01-19T08:26:22.595Z,994.66
2023-01-19T08:27:22.567Z,994.72
2023-01-19T08:28:22.561Z,994.72
2023-01-19T08:29:22.586Z,994.73
2023-01-19T08:30:22.540Z,994.85
2023-01-19T08:31:24.809Z,994.84
2023-01-19T08:32:22.555Z,994.82
2023-01-19T08:33:22.479Z,994.91
2023-01-19T08:34:22.490Z,994.92
2023-01-19T08:35:22.483Z,995.00
2023-01-19T08:36:22.477Z,994.91
2023-01-19T08:37:22.450Z,994.94
2023-01-19T08:38:22.438Z,994.94
2023-01-19T08:39:22.429Z,994.91
2023-01-19T08:40:22.511Z,994.92
2023-01-19T08:41:22.465Z,994.93
2023-01-19T08:42:22.429Z,994.95
2023-01-19T08:43:22.358Z,994.95
2023-01-19T08:44:22.336Z,995.01
2023-01-19T08:45:22.317Z,995.17
2023-01-19T08:46:22.373Z,995.15
2023-01-19T08:47:22.351Z,995.16
2023-01-19T08:48:22.311Z,995.13
2023-01-19T08:49:22.332Z,995.17
2023-01-19T08:50:22.340Z,995.16
2023-01-19T08:51:22.283Z,995.14
2023-01-19T08:52:22.271Z,995.18
2023-01-19T08:53:22.226Z,995.17
2023-01-19T08:54:22.210Z,995.13
2023-01-19T08:55:22.203Z,995.22
2023-01-19T08:56:22.183Z,995.27
2023-01-19T08:57:22.205Z,995.26
2023-01-19T08:58:22.162Z,995.25
2023-01-19T08:59:22.176Z,995.29
2023-01-19T09:00:22.289Z,995.33
2023-01-19T09:01:22.378Z,995.31
2023-01-19T09:02:22.314Z,995.35
2023-01-19T09:03:22.109Z,995.37
2023-01-19T09:04:22.076Z,995.38
2023-01-19T09:05:22.082Z,995.44
2023-01-19T09:06:22.124Z,995.43
2023-01-19T09:07:22.062Z,995.43
2023-01-19T09:08:22.033Z,995.48
2023-01-19T09:09:22.061Z,995.48
2023-01-19T09:10:22.016Z,995.44
2023-01-19T09:11:21.977Z,995.46
2023-01-19T09:12:21.983Z,995.46
2023-01-19T09:13:21.975Z,995.45
2023-01-19T09:14:21.938Z,995.56
2023-01-19T09:15:21.923Z,995.50
2023-01-19T09:16:21.998Z,995.50
2023-01-19T09:17:21.936Z,995.50
2023-01-19T09:18:21.890Z,995.50
2023-01-19T09:19:21.902Z,995.55
2023-01-19T09:20:21.864Z,995.57
2023-01-19T09:21:21.988Z,995.62
2023-01-19T09:22:21.862Z,995.63
2023-01-19T09:23:21.826Z,995.66
2023-01-19T09:24:21.822Z,995.67
2023-01-19T09:25:21.809Z,995.67
2023-01-19T09:26:21.866Z,995.67
2023-01-19T09:27:21.858Z,995.72
2023-01-19T09:28:21.753Z,995.68
2023-01-19T09:29:21.740Z,995.73
2023-01-19T09:30:21.810Z,995.69
2023-01-19T09:31:21.807Z,995.74
2023-01-19T09:32:21.755Z,995.77
2023-01-19T09:33:21.717Z,995.76
2023-01-19T09:34:21.690Z,995.85
2023-01-19T09:35:21.693Z,995.84
2023-01-19T09:36:21.677Z,995.87
2023-01-19T09:37:21.661Z,995.90
2023-01-19T09:38:21.684Z,995.91
2023-01-19T09:39:21.628Z,995.88
2023-01-19T09:40:21.660Z,995.91
2023-01-19T09:41:21.587Z,995.93
2023-01-19T09:42:21.674Z,995.93
2023-01-19T09:43:21.570Z,996.02
2023-01-19T09:44:21.552Z,996.00
2023-01-19T09:45:21.543Z,995.97
2023-01-19T09:46:21.638Z,996.05
2023-01-19T09:47:21.521Z,996.07
2023-01-19T09:48:21.495Z,996.01
2023-01-19T09:49:21.494Z,996.03
2023-01-19T09:50:21.474Z,996.06
2023-01-19T09:51:21.453Z,996.08
2023-01-19T09:52:21.458Z,996.14
2023-01-19T09:53:21.421Z,996.12
2023-01-19T09:54:21.419Z,996.11
2023-01-19T09:55:21.401Z,996.13
2023-01-19T09:56:21.406Z,996.16
2023-01-19T09:57:21.382Z,996.17
2023-01-19T09:58:21.373Z,996.19
2023-01-19T09:59:21.342Z,996.18
2023-01-19T10:00:21.334Z,996.23
2023-01-19T10:01:21.431Z,996.20
2023-01-19T10:02:21.367Z,996.21
2023-01-19T10:03:21.324Z,996.25
2023-01-19T10:04:21.572Z,996.20
2023-01-19T10:05:21.269Z,996.24
2023-01-19T10:06:21.277Z,996.22
2023-01-19T10:07:21.282Z,996.30
2023-01-19T10:08:21.240Z,996.26
2023-01-19T10:11:51.837Z,996.34
2023-01-19T10:12:19.895Z,996.26
2023-01-19T10:15:39.599Z,996.36
2023-01-19T10:16:38.980Z,996.31
2023-01-19T10:17:38.921Z,996.30
2023-01-19T10:18:38.904Z,996.37
2023-01-19T10:19:38.946Z,996.41
2023-01-19T10:20:38.864Z,996.40
2023-01-19T10:21:38.911Z,996.41
2023-01-19T10:22:38.861Z,996.46
2023-01-19T10:23:38.921Z,996.47
2023-01-19T10:24:38.832Z,996.49
2023-01-19T10:25:38.857Z,996.49
2023-01-19T10:26:38.823Z,996.42
2023-01-19T10:27:38.879Z,996.42
2023-01-19T10:28:38.858Z,996.45
2023-01-19T10:29:39.987Z,996.50
2023-01-19T10:30:38.875Z,996.47
2023-01-19T10:31:38.989Z,996.55
2023-01-19T10:32:38.883Z,996.56
2023-01-19T10:33:38.706Z,996.60
2023-01-19T10:34:38.717Z,996.61
2023-01-19T10:35:38.693Z,996.56
2023-01-19T10:36:38.682Z,996.59
2023-01-19T10:37:38.665Z,996.58
2023-01-19T10:38:38.656Z,996.63
2023-01-19T10:39:38.949Z,996.61
2023-01-19T10:40:38.720Z,996.65
2023-01-19T10:41:38.646Z,996.68
2023-01-19T10:42:38.679Z,996.75
2023-01-19T10:43:38.656Z,996.69
2023-01-19T10:44:38.596Z,996.67
2023-01-19T10:45:38.608Z,996.72
2023-01-19T10:46:38.617Z,996.74
2023-01-19T10:47:38.521Z,996.67
2023-01-19T10:48:38.595Z,996.72
2023-01-19T10:49:38.577Z,996.82
2023-01-19T10:50:38.543Z,996.71
2023-01-19T10:51:38.527Z,996.68
2023-01-19T10:52:38.603Z,996.70
2023-01-19T10:53:38.454Z,996.70
2023-01-19T10:54:38.453Z,996.72
2023-01-19T10:55:38.430Z,996.71
2023-01-19T10:56:38.532Z,996.75
2023-01-19T10:57:38.429Z,996.76
2023-01-19T10:58:38.424Z,996.73
2023-01-19T10:59:38.484Z,996.66
2023-01-19T11:00:38.495Z,996.76
2023-01-19T11:01:38.438Z,996.78
2023-01-19T11:02:38.485Z,996.77
2023-01-19T11:03:38.409Z,996.79
2023-01-19T11:04:38.285Z,996.79
2023-01-19T11:05:38.274Z,996.78
2023-01-19T11:06:38.262Z,996.79
2023-01-19T11:07:38.237Z,996.81
2023-01-19T11:08:38.230Z,996.74
2023-01-19T11:09:38.259Z,996.79
2023-01-19T11:10:38.183Z,996.81
2023-01-19T11:11:38.220Z,996.74
2023-01-19T11:12:38.194Z,996.77
2023-01-19T11:13:38.176Z,996.78
2023-01-19T11:14:38.181Z,996.79
2023-01-19T11:15:38.149Z,996.82
2023-01-19T11:16:38.160Z,996.72
2023-01-19T11:17:38.122Z,996.77
2023-01-19T11:18:38.108Z,996.74
2023-01-19T11:19:38.076Z,996.74
2023-01-19T11:20:38.061Z,996.77
2023-01-19T11:21:38.121Z,996.76
2023-01-19T11:22:38.050Z,996.75
2023-01-19T11:23:38.115Z,996.78
2023-01-19T11:24:38.026Z,996.78
2023-01-19T11:25:37.996Z,996.77
2023-01-19T11:26:38.079Z,996.79
2023-01-19T11:27:38.021Z,996.80
2023-01-19T11:28:38.048Z,996.81
2023-01-19T11:29:38.005Z,996.78
2023-01-19T11:30:37.954Z,996.79
2023-01-19T11:31:37.975Z,996.75
2023-01-19T11:32:37.919Z,996.82
2023-01-19T11:33:37.925Z,996.84
2023-01-19T11:34:37.880Z,996.81
2023-01-19T11:35:37.883Z,996.82
2023-01-19T11:36:37.853Z,996.77
2023-01-19T11:37:37.832Z,996.79
2023-01-19T11:38:37.813Z,996.81
2023-01-19T11:39:37.861Z,996.80
2023-01-19T11:40:37.833Z,996.73
2023-01-19T11:41:37.803Z,996.81
2023-01-19T11:42:37.780Z,996.78
2023-01-19T11:49:07.463Z,996.76
2023-01-19T11:50:08.392Z,996.77
2023-01-19T11:51:08.365Z,996.77
2023-01-19T11:52:08.358Z,996.74
2023-01-19T11:53:08.355Z,996.80
2023-01-19T11:54:08.354Z,996.78
2023-01-19T11:55:08.348Z,996.84
2023-01-19T11:56:08.366Z,996.81
2023-01-19T11:57:08.293Z,996.81
2023-01-19T11:58:08.341Z,996.85
2023-01-19T11:59:08.304Z,996.82
2023-01-19T12:00:08.293Z,996.81
2023-01-19T12:01:08.284Z,996.80
2023-01-19T12:02:08.244Z,996.76
2023-01-19T12:03:08.310Z,996.78
2023-01-19T12:04:08.264Z,996.80
2023-01-19T12:05:08.190Z,996.75
2023-01-19T12:06:08.193Z,996.74
2023-01-19T12:07:08.155Z,996.76
2023-01-19T12:08:08.556Z,996.77
2023-01-19T12:09:08.221Z,996.82
2023-01-19T12:10:08.117Z,996.81
2023-01-19T12:11:08.157Z,996.86
2023-01-19T12:12:08.132Z,996.81
2023-01-19T12:13:08.088Z,996.84
2023-01-19T12:14:08.116Z,996.83
2023-01-19T12:15:08.076Z,996.83
2023-01-19T12:16:08.061Z,996.87
2023-01-19T12:17:08.025Z,996.79
2023-01-19T12:18:08.012Z,996.84
2023-01-19T12:19:08.006Z,996.83
2023-01-19T12:20:08.018Z,996.82
2023-01-19T12:21:07.991Z,996.87
2023-01-19T12:22:07.996Z,996.86
2023-01-19T12:23:07.946Z,996.85
2023-01-19T12:24:07.990Z,996.84
2023-01-19T12:25:07.930Z,996.82
2023-01-19T12:26:07.911Z,996.84
2023-01-19T12:27:07.901Z,996.87
2023-01-19T12:28:07.880Z,996.88
2023-01-19T12:29:07.869Z,996.90
2023-01-19T12:30:07.875Z,996.84
2023-01-19T12:31:07.928Z,996.88
2023-01-19T12:32:07.827Z,996.89
2023-01-19T12:33:07.823Z,996.90
2023-01-19T12:34:07.901Z,996.89
2023-01-19T12:35:07.842Z,996.87
2023-01-19T12:36:07.787Z,996.97
2023-01-19T12:37:07.775Z,996.89
2023-01-19T12:38:07.808Z,996.92
2023-01-19T12:39:07.740Z,996.94
2023-01-19T12:40:07.720Z,996.97
2023-01-19T12:41:07.724Z,996.92
2023-01-19T12:42:07.693Z,997.00
2023-01-19T12:43:07.665Z,996.96
2023-01-19T12:44:07.671Z,996.95
2023-01-19T12:45:07.750Z,996.99
2023-01-19T12:46:07.682Z,996.96
2023-01-19T12:47:07.648Z,997.00
2023-01-19T12:48:07.627Z,997.02
2023-01-19T12:49:07.597Z,996.96
2023-01-19T12:50:07.595Z,997.00
2023-01-19T12:51:07.595Z,997.03
2023-01-19T12:52:07.574Z,997.04
2023-01-19T12:53:07.574Z,997.00
2023-01-19T12:54:07.622Z,997.03
2023-01-19T12:55:07.527Z,997.03
2023-01-19T12:56:07.504Z,997.03
2023-01-19T12:57:07.493Z,997.05
2023-01-19T12:58:07.489Z,997.04
2023-01-19T12:59:07.507Z,997.05
2023-01-19T13:00:07.475Z,997.04
2023-01-19T13:01:07.477Z,997.05
2023-01-19T13:02:07.489Z,997.06
2023-01-19T13:03:07.427Z,997.07
2023-01-19T13:04:07.784Z,997.09
2023-01-19T13:05:07.389Z,997.10
2023-01-19T14:58:28.351Z,997.92
2023-01-19T14:59:12.783Z,997.87
2023-01-19T15:00:16.590Z,997.86
2023-01-19T15:01:12.904Z,997.90
2023-01-19T16:04:00.557Z,998.40
2023-01-19T16:05:00.473Z,998.40
2023-01-19T16:06:00.437Z,998.41
2023-01-19T16:07:00.487Z,998.44
2023-01-19T16:08:01.890Z,998.46
2023-01-19T16:09:00.409Z,998.46
2023-01-19T16:10:00.388Z,998.44
2023-01-19T16:11:00.375Z,998.40
2023-01-19T16:12:00.367Z,998.41
2023-01-19T16:13:00.420Z,998.46
2023-01-19T16:14:00.354Z,998.39
2023-01-19T16:15:00.366Z,998.43
2023-01-19T16:16:00.305Z,998.45
2023-01-19T16:17:00.309Z,998.46
2023-01-19T16:18:00.308Z,998.51
2023-01-19T16:26:21.336Z,998.63
2023-01-19T16:27:20.401Z,998.59
2023-01-19T16:30:49.456Z,998.65
2023-01-19T16:31:50.420Z,998.67
2023-01-19T16:33:17.773Z,998.67
2023-01-19T16:33:50.373Z,998.68
2023-01-19T16:47:30.872Z,998.77
2023-01-19T16:48:31.833Z,998.82
2023-01-19T17:14:05.565Z,999.07
2023-01-19T17:15:05.488Z,999.10
2023-01-19T17:16:05.493Z,999.16
2023-01-19T17:17:05.496Z,999.16
2023-01-19T17:18:05.503Z,999.09
2023-01-19T17:19:05.496Z,999.10
2023-01-19T17:20:05.462Z,999.14
2023-01-19T17:21:05.452Z,999.16
2023-01-19T17:22:05.450Z,999.13
2023-01-19T17:23:05.486Z,999.16
2023-01-19T17:24:05.399Z,999.15
2023-01-19T17:25:05.427Z,999.14
2023-01-19T17:26:05.422Z,999.10
2023-01-19T17:27:05.387Z,999.14
2023-01-19T17:28:05.485Z,999.16
2023-01-19T17:29:05.339Z,999.19
2023-01-19T17:30:05.319Z,999.17
2023-01-19T17:31:05.350Z,999.23
2023-01-19T17:32:05.298Z,999.20
2023-01-19T17:33:05.304Z,999.22
2023-01-19T17:34:05.261Z,999.24
2023-01-19T17:35:05.230Z,999.24
2023-01-19T17:36:05.272Z,999.28
2023-01-19T17:37:05.242Z,999.27
2023-01-19T17:38:05.177Z,999.27
2023-01-19T17:39:05.152Z,999.28
2023-01-19T17:40:05.170Z,999.30
2023-01-19T17:41:05.168Z,999.33
2023-01-19T17:42:05.163Z,999.32
2023-01-19T17:43:05.141Z,999.35
2023-01-19T17:44:05.126Z,999.36
2023-01-19T17:45:05.083Z,999.38
2023-01-19T17:46:05.115Z,999.39
2023-01-19T17:47:05.057Z,999.40
2023-01-19T17:48:05.063Z,999.39
2023-01-19T17:49:05.050Z,999.46
2023-01-19T17:50:05.017Z,999.42
2023-01-19T17:51:05.007Z,999.48
2023-01-19T17:52:05.018Z,999.47
2023-01-19T17:53:05.046Z,999.40
2023-01-19T17:54:04.969Z,999.46
2023-01-19T17:55:04.954Z,999.46
2023-01-19T17:56:04.947Z,999.51
2023-01-19T17:57:04.963Z,999.47
2023-01-19T17:58:04.976Z,999.53
2023-01-19T17:59:04.909Z,999.54
2023-01-19T18:00:04.954Z,999.55
2023-01-19T18:01:05.046Z,999.55
2023-01-19T18:02:04.997Z,999.56
2023-01-19T18:03:04.903Z,999.59
2023-01-19T18:04:04.848Z,999.55